createdAt,value
2023-03-04T00:00:40.234Z,92.21
2023-03-04T00:01:40.281Z,92.21
2023-03-04T00:02:40.216Z,92.10
2023-03-04T00:03:40.208Z,92.21
2023-03-04T00:04:40.208Z,92.10
2023-03-04T00:05:40.168Z,92.25
2023-03-04T00:06:40.153Z,92.46
2023-03-04T00:07:40.146Z,92.66
2023-03-04T00:08:40.129Z,92.88
2023-03-04T00:09:40.114Z,93.08
2023-03-04T00:10:40.109Z,93.19
2023-03-04T00:11:40.096Z,93.19
2023-03-04T00:12:40.074Z,93.19
2023-03-04T00:13:40.068Z,93.08
2023-03-04T00:14:40.059Z,93.08
2023-03-04T00:15:40.064Z,92.98
2023-03-04T00:16:40.105Z,92.88
2023-03-04T00:17:40.014Z,92.98
2023-03-04T00:18:40.020Z,92.88
2023-03-04T00:19:39.996Z,92.77
2023-03-04T00:20:39.978Z,92.66
2023-03-04T00:21:39.964Z,92.66
2023-03-04T00:22:39.950Z,92.56
2023-03-04T00:23:39.940Z,92.56
2023-03-04T00:24:39.915Z,92.50
2023-03-04T00:25:41.916Z,92.50
2023-03-04T00:26:39.898Z,92.60
2023-03-04T00:27:39.876Z,92.71
2023-03-04T00:28:39.864Z,92.71
2023-03-04T00:29:39.855Z,92.71
2023-03-04T00:30:39.849Z,92.82
2023-03-04T00:31:39.891Z,92.92
2023-03-04T00:32:39.858Z,93.02
2023-03-04T00:33:39.809Z,92.92
2023-03-04T00:34:39.781Z,92.71
2023-03-04T00:35:39.794Z,92.60
2023-03-04T00:36:39.769Z,92.65
2023-03-04T00:37:39.759Z,92.85
2023-03-04T00:38:39.755Z,93.07
2023-03-04T00:39:39.714Z,93.42
2023-03-04T00:40:39.711Z,93.63
2023-03-04T00:41:39.701Z,93.84
2023-03-04T00:42:39.682Z,93.63
2023-03-04T00:43:39.678Z,93.52
2023-03-04T00:44:39.663Z,93.63
2023-03-04T00:45:39.682Z,93.63
2023-03-04T00:46:39.643Z,93.74
2023-03-04T00:47:39.639Z,93.95
2023-03-04T00:48:39.606Z,94.15
2023-03-04T00:49:39.591Z,94.26
2023-03-04T00:50:39.583Z,94.36
2023-03-04T00:51:39.568Z,94.36
2023-03-04T00:52:39.552Z,94.26
2023-03-04T00:53:39.540Z,94.36
2023-03-04T00:54:39.532Z,94.46
2023-03-04T00:55:39.513Z,94.57
2023-03-04T00:56:39.491Z,94.57
2023-03-04T00:57:39.480Z,94.78
2023-03-04T00:58:39.476Z,94.78
2023-03-04T00:59:39.452Z,94.68
2023-03-04T01:00:39.444Z,94.68
2023-03-04T01:01:39.476Z,94.68
2023-03-04T01:02:39.462Z,94.78
2023-03-04T01:03:39.442Z,94.78
2023-03-04T01:04:39.398Z,94.89
2023-03-04T01:05:39.371Z,94.89
2023-03-04T01:06:39.364Z,94.74
2023-03-04T01:07:39.344Z,94.78
2023-03-04T01:08:39.341Z,94.46
2023-03-04T01:09:39.321Z,94.36
2023-03-04T01:10:39.302Z,94.36
2023-03-04T01:11:39.291Z,94.15
2023-03-04T01:12:39.287Z,93.95
2023-03-04T01:13:39.280Z,93.84
2023-03-04T01:14:39.259Z,93.88
2023-03-04T01:15:39.243Z,93.99
2023-03-04T01:16:39.287Z,94.13
2023-03-04T01:17:39.274Z,94.24
2023-03-04T01:18:39.206Z,94.45
2023-03-04T01:19:39.219Z,94.66
2023-03-04T01:20:39.171Z,94.87
2023-03-04T01:21:39.167Z,95.07
2023-03-04T01:22:39.152Z,95.39
2023-03-04T01:23:39.144Z,95.54
2023-03-04T01:24:39.122Z,95.64
2023-03-04T01:25:39.126Z,95.75
2023-03-04T01:26:39.102Z,95.86
2023-03-04T01:27:39.088Z,95.86
2023-03-04T01:28:39.068Z,95.75
2023-03-04T01:29:39.064Z,95.86
2023-03-04T01:30:39.074Z,95.86
2023-03-04T01:31:39.029Z,96.06
2023-03-04T01:32:39.028Z,96.06
2023-03-04T01:33:39.003Z,96.06
2023-03-04T01:34:38.997Z,96.06
2023-03-04T01:35:39.056Z,95.96
2023-03-04T01:36:38.972Z,95.96
2023-03-04T01:37:38.959Z,95.96
2023-03-04T01:38:38.935Z,95.96
2023-03-04T01:39:38.925Z,96.06
2023-03-04T01:40:38.909Z,96.17
2023-03-04T01:41:38.906Z,96.12
2023-03-04T01:42:38.894Z,96.33
2023-03-04T01:43:38.873Z,96.33
2023-03-04T01:44:38.858Z,96.23
2023-03-04T01:45:45.482Z,96.23
2023-03-04T01:46:39.873Z,96.23
2023-03-04T01:47:38.826Z,95.92
2023-03-04T01:48:38.991Z,95.60
2023-03-04T01:49:38.792Z,95.29
2023-03-04T01:50:38.782Z,95.29
2023-03-04T01:51:38.791Z,95.23
2023-03-04T01:52:38.762Z,95.29
2023-03-04T01:53:38.749Z,95.43
2023-03-04T01:54:38.737Z,95.54
2023-03-04T01:55:38.720Z,95.64
2023-03-04T01:56:38.702Z,95.86
2023-03-04T01:57:38.693Z,95.92
2023-03-04T01:58:38.686Z,96.17
2023-03-04T01:59:38.661Z,96.23
2023-03-04T02:00:38.648Z,96.44
2023-03-04T02:01:38.701Z,96.33
2023-03-04T02:02:38.631Z,96.12
2023-03-04T02:03:38.611Z,95.81
2023-03-04T02:04:38.706Z,95.39
2023-03-04T02:05:38.595Z,95.07
2023-03-04T02:06:38.584Z,94.91
2023-03-04T02:07:38.583Z,94.91
2023-03-04T02:08:38.546Z,94.91
2023-03-04T02:09:38.541Z,95.01
2023-03-04T02:10:38.541Z,95.12
2023-03-04T02:11:38.511Z,95.37
2023-03-04T02:12:38.506Z,95.58
2023-03-04T02:13:38.488Z,95.68
2023-03-04T02:14:38.486Z,95.90
2023-03-04T02:15:38.599Z,95.90
2023-03-04T02:16:38.439Z,96.04
2023-03-04T02:17:38.445Z,96.15
2023-03-04T02:18:38.425Z,96.25
2023-03-04T02:19:38.410Z,96.36
2023-03-04T02:20:38.396Z,96.47
2023-03-04T02:21:38.382Z,96.57
2023-03-04T02:22:38.374Z,96.57
2023-03-04T02:23:38.395Z,96.57
2023-03-04T02:24:38.336Z,96.47
2023-03-04T02:25:38.328Z,96.47
2023-03-04T02:26:38.317Z,96.36
2023-03-04T02:27:38.297Z,96.36
2023-03-04T02:28:38.294Z,96.57
2023-03-04T02:29:38.280Z,96.67
2023-03-04T02:30:38.256Z,96.78
2023-03-04T02:31:38.286Z,96.78
2023-03-04T02:32:38.235Z,96.78
2023-03-04T02:33:38.220Z,96.84
2023-03-04T02:34:38.213Z,96.84
2023-03-04T02:35:38.221Z,96.94
2023-03-04T02:36:38.180Z,96.73
2023-03-04T02:37:38.171Z,96.63
2023-03-04T02:38:38.155Z,96.42
2023-03-04T02:39:38.164Z,96.21
2023-03-04T02:40:38.138Z,96.04
2023-03-04T02:41:38.115Z,95.90
2023-03-04T02:42:38.113Z,95.94
2023-03-04T02:43:38.089Z,96.04
2023-03-04T02:44:38.088Z,96.15
2023-03-04T02:45:38.085Z,96.25
2023-03-04T02:46:38.158Z,96.47
2023-03-04T02:47:38.042Z,96.47
2023-03-04T02:48:38.022Z,96.57
2023-03-04T02:49:38.014Z,96.67
2023-03-04T02:50:37.998Z,96.78
2023-03-04T02:51:37.993Z,96.83
2023-03-04T02:52:37.969Z,96.67
2023-03-04T02:53:37.970Z,96.83
2023-03-04T02:54:37.950Z,96.83
2023-03-04T02:55:37.972Z,97.03
2023-03-04T02:56:37.935Z,97.24
2023-03-04T02:57:37.913Z,97.45
2023-03-04T02:58:37.901Z,97.62
2023-03-04T02:59:37.897Z,97.66
2023-03-04T03:00:37.872Z,97.66
2023-03-04T03:01:37.877Z,97.66
2023-03-04T03:02:37.855Z,97.56
2023-03-04T03:03:37.830Z,97.56
2023-03-04T03:04:37.816Z,97.56
2023-03-04T03:05:37.807Z,97.56
2023-03-04T03:06:37.797Z,97.66
2023-03-04T03:07:37.774Z,97.52
2023-03-04T03:08:37.769Z,97.24
2023-03-04T03:09:37.752Z,97.03
2023-03-04T03:10:37.742Z,96.93
2023-03-04T03:11:37.755Z,96.72
2023-03-04T03:12:37.720Z,96.67
2023-03-04T03:13:37.703Z,96.67
2023-03-04T03:14:37.691Z,96.51
2023-03-04T03:15:37.674Z,96.41
2023-03-04T03:16:37.715Z,96.19
2023-03-04T03:17:37.649Z,96.09
2023-03-04T03:18:37.641Z,95.98
2023-03-04T03:19:37.635Z,96.13
2023-03-04T03:20:37.618Z,96.34
2023-03-04T03:21:37.614Z,96.55
2023-03-04T03:22:37.576Z,96.93
2023-03-04T03:23:37.569Z,97.14
2023-03-04T03:24:37.549Z,97.03
2023-03-04T03:25:37.563Z,96.77
2023-03-04T03:26:37.525Z,96.55
2023-03-04T03:27:37.534Z,96.55
2023-03-04T03:28:37.498Z,96.66
2023-03-04T03:29:37.494Z,96.66
2023-03-04T03:30:37.472Z,96.66
2023-03-04T03:31:37.566Z,96.66
2023-03-04T03:32:37.479Z,96.66
2023-03-04T03:33:37.439Z,96.77
2023-03-04T03:34:37.423Z,96.97
2023-03-04T03:35:37.444Z,97.08
2023-03-04T03:36:37.534Z,97.14
2023-03-04T03:37:37.389Z,97.03
2023-03-04T03:38:37.374Z,96.72
2023-03-04T03:39:37.365Z,96.51
2023-03-04T03:40:37.351Z,96.41
2023-03-04T03:41:37.334Z,96.09
2023-03-04T03:42:37.314Z,96.09
2023-03-04T03:43:37.334Z,96.03
2023-03-04T03:44:37.300Z,96.19
2023-03-04T03:45:37.296Z,96.19
2023-03-04T03:46:37.269Z,96.09
2023-03-04T03:47:37.251Z,96.19
2023-03-04T03:48:37.240Z,96.19
2023-03-04T03:49:37.229Z,96.09
2023-03-04T03:50:37.211Z,95.88
2023-03-04T03:51:37.205Z,95.88
2023-03-04T03:52:37.197Z,95.98
2023-03-04T03:53:37.183Z,95.98
2023-03-04T03:54:37.160Z,95.88
2023-03-04T03:55:37.156Z,95.88
2023-03-04T03:56:37.154Z,95.46
2023-03-04T03:57:37.122Z,95.40
2023-03-04T03:58:37.115Z,95.15
2023-03-04T03:59:37.120Z,94.93
2023-03-04T04:00:37.094Z,94.77
2023-03-04T04:01:37.082Z,94.67
2023-03-04T04:02:37.220Z,94.56
2023-03-04T04:03:37.050Z,94.56
2023-03-04T04:04:37.029Z,94.67
2023-03-04T04:05:37.020Z,94.87
2023-03-04T04:06:37.006Z,94.98
2023-03-04T04:07:37.036Z,95.19
2023-03-04T04:08:36.989Z,95.44
2023-03-04T04:09:36.974Z,95.65
2023-03-04T04:10:36.952Z,95.86
2023-03-04T04:11:36.939Z,95.97
2023-03-04T04:12:36.934Z,96.22
2023-03-04T04:13:39.219Z,96.39
2023-03-04T04:14:36.899Z,96.81
2023-03-04T04:15:36.926Z,97.02
2023-03-04T04:16:36.948Z,97.12
2023-03-04T04:17:36.864Z,97.12
2023-03-04T04:18:36.864Z,96.91
2023-03-04T04:19:36.834Z,96.81
2023-03-04T04:20:36.827Z,96.70
2023-03-04T04:21:36.807Z,97.02
2023-03-04T04:22:36.813Z,97.02
2023-03-04T04:23:36.789Z,96.97
2023-03-04T04:24:36.774Z,96.87
2023-03-04T04:25:36.760Z,96.66
2023-03-04T04:26:36.753Z,96.55
2023-03-04T04:27:36.729Z,96.24
2023-03-04T04:28:36.725Z,96.13
2023-03-04T04:29:36.711Z,95.92
2023-03-04T04:30:36.775Z,95.61
2023-03-04T04:31:36.701Z,95.29
2023-03-04T04:32:36.661Z,95.08
2023-03-04T04:33:36.654Z,95.08
2023-03-04T04:34:36.641Z,94.98
2023-03-04T04:35:36.710Z,94.87
2023-03-04T04:36:36.620Z,94.87
2023-03-04T04:37:36.601Z,94.77
2023-03-04T04:38:36.587Z,94.45
2023-03-04T04:39:36.579Z,94.35
2023-03-04T04:40:36.577Z,94.39
2023-03-04T04:41:36.552Z,94.49
2023-03-04T04:42:36.540Z,94.71
2023-03-04T04:43:36.524Z,94.96
2023-03-04T04:44:36.505Z,95.28
2023-03-04T04:45:36.492Z,95.48
2023-03-04T04:46:36.484Z,95.59
2023-03-04T04:47:36.504Z,95.90
2023-03-04T04:48:36.456Z,96.05
2023-03-04T04:49:36.451Z,96.26
2023-03-04T04:50:36.429Z,96.47
2023-03-04T04:51:36.420Z,96.69
2023-03-04T04:52:36.403Z,96.89
2023-03-04T04:53:36.387Z,97.00
2023-03-04T04:54:36.382Z,97.11
2023-03-04T04:55:36.385Z,97.21
2023-03-04T04:56:36.353Z,97.31
2023-03-04T04:57:36.335Z,97.31
2023-03-04T04:58:36.327Z,97.47
2023-03-04T04:59:36.324Z,97.67
2023-03-04T05:00:36.302Z,97.78
2023-03-04T05:01:36.380Z,97.94
2023-03-04T05:02:36.294Z,97.94
2023-03-04T05:03:36.301Z,97.84
2023-03-04T05:04:36.244Z,97.84
2023-03-04T05:05:36.251Z,97.74
2023-03-04T05:06:36.225Z,97.53
2023-03-04T05:07:36.214Z,97.31
2023-03-04T05:08:36.204Z,97.21
2023-03-04T05:09:36.205Z,97.21
2023-03-04T05:10:36.186Z,97.31
2023-03-04T05:11:36.169Z,97.31
2023-03-04T05:12:36.152Z,97.31
2023-03-04T05:13:36.138Z,97.11
2023-03-04T05:14:36.196Z,97.00
2023-03-04T05:15:36.276Z,97.00
2023-03-04T05:16:36.130Z,97.00
2023-03-04T05:17:36.141Z,97.00
2023-03-04T05:18:36.166Z,97.21
2023-03-04T05:19:36.085Z,97.42
2023-03-04T05:20:36.058Z,97.31
2023-03-04T05:21:36.069Z,97.21
2023-03-04T05:22:36.072Z,97.17
2023-03-04T05:23:36.025Z,96.95
2023-03-04T05:24:35.989Z,96.85
2023-03-04T05:25:35.990Z,96.64
2023-03-04T05:26:35.973Z,96.43
2023-03-04T05:27:35.971Z,96.16
2023-03-04T05:28:35.989Z,96.05
2023-03-04T05:29:35.930Z,96.05
2023-03-04T05:30:35.920Z,96.05
2023-03-04T05:31:35.904Z,96.16
2023-03-04T05:32:35.910Z,96.37
2023-03-04T05:33:35.876Z,96.37
2023-03-04T05:34:35.864Z,96.41
2023-03-04T05:35:35.955Z,96.58
2023-03-04T05:36:35.846Z,96.73
2023-03-04T05:37:35.823Z,96.69
2023-03-04T05:38:35.812Z,96.73
2023-03-04T05:39:35.813Z,96.83
2023-03-04T05:40:35.793Z,96.94
2023-03-04T05:41:35.780Z,96.94
2023-03-04T05:42:35.760Z,96.94
2023-03-04T05:43:35.745Z,97.05
2023-03-04T05:44:35.748Z,97.15
2023-03-04T05:45:35.727Z,97.25
2023-03-04T05:46:35.834Z,97.36
2023-03-04T05:47:35.714Z,97.51
2023-03-04T05:48:35.690Z,97.57
2023-03-04T05:49:35.678Z,97.67
2023-03-04T05:50:35.682Z,97.67
2023-03-04T05:51:35.673Z,97.67
2023-03-04T05:52:35.641Z,97.67
2023-03-04T05:53:35.639Z,97.78
2023-03-04T05:54:35.605Z,97.78
2023-03-04T05:55:35.596Z,97.88
2023-03-04T05:56:35.587Z,98.10
2023-03-04T05:57:35.569Z,97.99
2023-03-04T05:58:35.600Z,97.99
2023-03-04T05:59:35.545Z,97.78
2023-03-04T06:00:35.531Z,97.78
2023-03-04T06:01:35.526Z,97.78
2023-03-04T06:02:35.508Z,97.63
2023-03-04T06:03:35.607Z,97.53
2023-03-04T06:04:35.488Z,97.47
2023-03-04T06:05:35.461Z,97.47
2023-03-04T06:06:35.450Z,97.47
2023-03-04T06:07:35.456Z,97.47
2023-03-04T06:08:35.431Z,97.57
2023-03-04T06:09:35.407Z,97.67
2023-03-04T06:10:35.394Z,97.57
2023-03-04T06:11:36.475Z,97.57
2023-03-04T06:12:35.376Z,97.67
2023-03-04T06:13:35.357Z,97.67
2023-03-04T06:14:35.348Z,97.78
2023-03-04T06:15:35.354Z,97.88
2023-03-04T06:16:35.338Z,97.99
2023-03-04T06:17:35.301Z,98.10
2023-03-04T06:18:35.292Z,98.16
2023-03-04T06:19:35.276Z,98.05
2023-03-04T06:20:35.264Z,97.94
2023-03-04T06:21:35.267Z,97.84
2023-03-04T06:22:35.240Z,97.63
2023-03-04T06:23:35.280Z,97.38
2023-03-04T06:24:35.253Z,97.27
2023-03-04T06:25:35.213Z,97.17
2023-03-04T06:26:35.196Z,96.75
2023-03-04T06:27:35.193Z,96.39
2023-03-04T06:28:35.166Z,96.07
2023-03-04T06:29:35.151Z,95.90
2023-03-04T06:30:35.141Z,95.70
2023-03-04T06:31:35.173Z,95.59
2023-03-04T06:32:35.181Z,95.54
2023-03-04T06:33:35.102Z,95.76
2023-03-04T06:34:35.089Z,95.65
2023-03-04T06:35:35.082Z,95.65
2023-03-04T06:36:35.053Z,95.34
2023-03-04T06:37:35.047Z,95.13
2023-03-04T06:38:35.041Z,95.13
2023-03-04T06:39:35.048Z,95.13
2023-03-04T06:40:34.999Z,95.08
2023-03-04T06:41:34.986Z,95.19
2023-03-04T06:42:35.006Z,94.98
2023-03-04T06:43:34.958Z,94.67
2023-03-04T06:44:34.944Z,94.31
2023-03-04T06:45:34.965Z,93.99
2023-03-04T06:46:34.989Z,93.68
2023-03-04T06:47:34.911Z,93.26
2023-03-04T06:48:34.894Z,92.83
2023-03-04T06:49:34.892Z,92.69
2023-03-04T06:50:34.868Z,92.58
2023-03-04T06:51:34.915Z,92.48
2023-03-04T06:52:34.849Z,92.38
2023-03-04T06:53:34.830Z,92.27
2023-03-04T06:54:34.830Z,92.06
2023-03-04T06:55:34.843Z,91.85
2023-03-04T06:56:34.803Z,91.85
2023-03-04T06:57:34.782Z,91.81
2023-03-04T06:58:34.775Z,91.71
2023-03-04T06:59:34.771Z,91.50
2023-03-04T07:00:34.857Z,91.39
2023-03-04T07:01:34.744Z,91.18
2023-03-04T07:02:34.711Z,91.03
2023-03-04T07:03:34.701Z,90.78
2023-03-04T07:04:34.680Z,90.33
2023-03-04T07:05:34.679Z,89.76
2023-03-04T07:06:34.660Z,88.84
2023-03-04T07:07:34.660Z,87.23
2023-03-04T07:08:34.650Z,85.73
2023-03-04T07:09:34.620Z,84.86
2023-03-04T07:10:34.621Z,83.53
2023-03-04T07:11:34.629Z,81.45
2023-03-04T07:12:34.592Z,80.16
2023-03-04T07:13:34.574Z,79.08
2023-03-04T07:14:34.563Z,78.94
2023-03-04T07:15:34.550Z,78.45
2023-03-04T07:16:34.612Z,77.58
2023-03-04T07:17:34.525Z,76.37
2023-03-04T07:18:34.501Z,75.09
2023-03-04T07:19:34.511Z,73.60
2023-03-04T07:20:34.484Z,72.84
2023-03-04T07:21:34.467Z,72.28
2023-03-04T07:22:34.508Z,71.84
2023-03-04T07:23:34.446Z,71.32
2023-03-04T07:24:34.431Z,70.76
2023-03-04T07:25:34.408Z,69.80
2023-03-04T07:26:34.407Z,69.04
2023-03-04T07:27:34.405Z,67.88
2023-03-04T07:28:34.370Z,67.77
2023-03-04T07:29:34.358Z,67.54
2023-03-04T07:30:34.354Z,66.99
2023-03-04T07:31:34.464Z,66.64
2023-03-04T07:32:34.386Z,66.13
2023-03-04T07:33:34.315Z,65.48
2023-03-04T07:34:34.310Z,64.62
2023-03-04T07:35:34.328Z,64.11
2023-03-04T07:36:34.281Z,63.90
2023-03-04T07:37:34.260Z,64.07
2023-03-04T07:38:34.248Z,63.97
2023-03-04T07:39:34.235Z,64.18
2023-03-04T07:40:34.222Z,63.84
2023-03-04T07:41:34.208Z,63.64
2023-03-04T07:42:34.198Z,62.92
2023-03-04T07:43:34.205Z,62.71
2023-03-04T07:44:34.173Z,63.35
2023-03-04T07:45:34.161Z,64.65
2023-03-04T07:46:34.157Z,65.95
2023-03-04T07:47:34.141Z,66.67
2023-03-04T07:48:34.126Z,67.19
2023-03-04T07:49:34.107Z,68.15
2023-03-04T07:50:34.083Z,68.19
2023-03-04T07:51:34.076Z,68.15
2023-03-04T07:52:34.073Z,67.71
2023-03-04T07:53:34.053Z,67.30
2023-03-04T07:54:34.053Z,67.50
2023-03-04T07:55:34.035Z,67.82
2023-03-04T07:56:34.024Z,67.91
2023-03-04T07:57:34.000Z,67.58
2023-03-04T07:58:33.996Z,67.37
2023-03-04T07:59:33.997Z,67.54
2023-03-04T08:00:33.968Z,67.96
2023-03-04T08:01:33.947Z,67.96
2023-03-04T08:02:33.972Z,68.30
2023-03-04T08:03:33.921Z,68.33
2023-03-04T08:04:33.926Z,68.95
2023-03-04T08:05:33.894Z,69.19
2023-03-04T08:06:33.895Z,70.01
2023-03-04T08:07:33.861Z,69.92
2023-03-04T08:08:33.852Z,70.15
2023-03-04T08:09:33.843Z,70.70
2023-03-04T08:10:33.839Z,70.98
2023-03-04T08:11:33.819Z,71.29
2023-03-04T08:12:33.808Z,71.33
2023-03-04T08:13:33.785Z,70.54
2023-03-04T08:14:33.778Z,69.33
2023-03-04T08:15:33.842Z,69.51
2023-03-04T08:16:33.749Z,69.17
2023-03-04T08:17:33.755Z,69.03
2023-03-04T08:18:33.725Z,69.13
2023-03-04T08:19:33.714Z,69.13
2023-03-04T08:20:33.692Z,69.03
2023-03-04T08:21:33.681Z,69.17
2023-03-04T08:22:33.674Z,69.71
2023-03-04T08:23:33.692Z,69.02
2023-03-04T08:24:33.642Z,70.47
2023-03-04T08:25:33.635Z,71.37
2023-03-04T08:26:33.615Z,71.16
2023-03-04T08:27:33.601Z,70.33
2023-03-04T08:28:33.588Z,70.33
2023-03-04T08:29:33.573Z,69.75
2023-03-04T08:30:33.562Z,69.00
2023-03-04T08:31:33.721Z,68.04
2023-03-04T08:32:33.639Z,66.97
2023-03-04T08:33:33.540Z,66.18
2023-03-04T08:34:33.530Z,66.83
2023-03-04T08:35:33.523Z,68.24
2023-03-04T08:36:33.498Z,67.42
2023-03-04T08:37:33.482Z,68.24
2023-03-04T08:38:33.456Z,68.07
2023-03-04T08:39:33.465Z,68.45
2023-03-04T08:40:33.430Z,69.07
2023-03-04T08:41:33.419Z,67.93
2023-03-04T08:42:33.411Z,68.45
2023-03-04T08:43:33.399Z,68.52
2023-03-04T08:44:33.377Z,68.59
2023-03-04T08:45:33.380Z,67.43
2023-03-04T08:46:33.487Z,67.53
2023-03-04T08:47:33.361Z,67.40
2023-03-04T08:48:33.337Z,66.16
2023-03-04T08:49:33.324Z,65.68
2023-03-04T08:50:33.300Z,66.84
2023-03-04T08:51:33.294Z,67.25
2023-03-04T08:52:33.293Z,67.84
2023-03-04T08:53:33.266Z,66.06
2023-03-04T08:54:33.268Z,65.89
2023-03-04T08:55:33.237Z,66.67
2023-03-04T08:56:33.231Z,66.67
2023-03-04T08:57:33.216Z,66.78
2023-03-04T08:58:33.200Z,67.09
2023-03-04T08:59:33.191Z,66.44
2023-03-04T09:00:33.185Z,67.47
2023-03-04T09:01:33.204Z,66.31
2023-03-04T09:02:33.153Z,65.25
2023-03-04T09:03:33.227Z,63.96
2023-03-04T09:04:33.123Z,62.43
2023-03-04T09:05:33.102Z,61.43
2023-03-04T09:06:33.090Z,60.44
2023-03-04T09:07:33.076Z,58.65
2023-03-04T09:08:33.071Z,56.68
2023-03-04T09:09:33.072Z,56.76
2023-03-04T09:10:33.041Z,55.94
2023-03-04T09:11:33.041Z,56.25
2023-03-04T09:12:33.017Z,55.43
2023-03-04T09:13:33.023Z,55.23
2023-03-04T09:14:33.003Z,55.66
2023-03-04T09:15:32.984Z,56.38
2023-03-04T09:16:32.991Z,56.17
2023-03-04T09:17:32.960Z,56.35
2023-03-04T09:18:32.944Z,55.20
2023-03-04T09:19:32.946Z,54.59
2023-03-04T09:20:32.910Z,54.39
2023-03-04T09:21:32.896Z,54.57
2023-03-04T09:22:32.887Z,54.33
2023-03-04T09:23:32.898Z,54.26
2023-03-04T09:24:32.868Z,55.61
2023-03-04T09:25:32.850Z,55.66
2023-03-04T09:26:32.846Z,56.58
2023-03-04T09:27:32.818Z,55.87
2023-03-04T09:28:32.803Z,56.68
2023-03-04T09:29:32.809Z,56.68
2023-03-04T09:30:32.788Z,56.92
2023-03-04T09:31:32.784Z,57.17
2023-03-04T09:32:32.875Z,58.56
2023-03-04T09:33:32.755Z,59.68
2023-03-04T09:34:32.788Z,59.58
2023-03-04T09:35:32.873Z,58.69
2023-03-04T09:36:32.740Z,59.61
2023-03-04T09:37:32.700Z,61.07
2023-03-04T09:38:32.701Z,61.13
2023-03-04T09:39:32.662Z,61.74
2023-03-04T09:40:32.706Z,62.05
2023-03-04T09:41:32.649Z,62.36
2023-03-04T09:42:32.633Z,61.85
2023-03-04T09:43:32.616Z,62.87
2023-03-04T09:44:32.611Z,62.46
2023-03-04T09:45:32.590Z,62.43
2023-03-04T09:46:32.657Z,62.92
2023-03-04T09:47:32.587Z,61.71
2023-03-04T09:48:32.550Z,62.46
2023-03-04T09:49:32.542Z,62.59
2023-03-04T09:50:32.523Z,64.06
2023-03-04T09:51:32.528Z,64.57
2023-03-04T09:52:32.498Z,64.70
2023-03-04T09:53:32.484Z,64.98
2023-03-04T09:54:32.472Z,63.39
2023-03-04T09:55:32.475Z,61.15
2023-03-04T09:56:32.454Z,60.71
2023-03-04T09:57:32.426Z,59.63
2023-03-04T09:58:32.426Z,58.91
2023-03-04T09:59:32.397Z,58.09
2023-03-04T10:00:32.403Z,58.61
2023-03-04T10:01:32.367Z,59.86
2023-03-04T10:02:32.356Z,59.50
2023-03-04T10:03:32.391Z,60.86
2023-03-04T10:04:32.388Z,61.00
2023-03-04T10:05:32.313Z,62.36
2023-03-04T10:06:32.310Z,61.67
2023-03-04T10:07:32.315Z,63.44
2023-03-04T10:08:32.289Z,63.65
2023-03-04T10:09:32.272Z,64.12
2023-03-04T10:10:32.260Z,65.45
2023-03-04T10:11:32.245Z,64.43
2023-03-04T10:12:32.232Z,64.63
2023-03-04T10:13:32.227Z,64.29
2023-03-04T10:14:32.209Z,63.51
2023-03-04T10:15:32.194Z,61.67
2023-03-04T10:16:32.288Z,60.64
2023-03-04T10:17:32.173Z,61.33
2023-03-04T10:18:32.147Z,62.10
2023-03-04T10:19:32.149Z,61.15
2023-03-04T10:20:32.128Z,60.94
2023-03-04T10:21:32.122Z,61.18
2023-03-04T10:22:32.115Z,62.33
2023-03-04T10:23:32.132Z,62.84
2023-03-04T10:24:32.078Z,63.25
2023-03-04T10:25:32.059Z,62.66
2023-03-04T10:26:32.045Z,62.02
2023-03-04T10:27:32.031Z,61.30
2023-03-04T10:28:32.024Z,62.02
2023-03-04T10:29:32.027Z,60.79
2023-03-04T10:30:31.992Z,60.97
2023-03-04T10:31:32.043Z,60.05
2023-03-04T10:32:32.051Z,58.61
2023-03-04T10:33:31.965Z,60.05
2023-03-04T10:34:31.930Z,60.63
2023-03-04T10:35:31.937Z,60.74
2023-03-04T10:36:31.910Z,60.63
2023-03-04T10:37:31.892Z,60.69
2023-03-04T10:38:31.886Z,60.82
2023-03-04T10:39:31.892Z,62.56
2023-03-04T10:40:31.847Z,62.59
2023-03-04T10:41:32.102Z,64.03
2023-03-04T10:42:32.035Z,64.23
2023-03-04T10:43:31.826Z,63.42
2023-03-04T10:44:31.802Z,63.51
2023-03-04T10:45:31.824Z,62.83
2023-03-04T10:46:31.766Z,63.62
2023-03-04T10:47:31.779Z,63.82
2023-03-04T10:48:31.757Z,63.72
2023-03-04T10:49:31.735Z,63.93
2023-03-04T10:50:31.717Z,63.18
2023-03-04T10:51:31.702Z,63.39
2023-03-04T10:52:31.697Z,61.33
2023-03-04T10:53:31.679Z,62.46
2023-03-04T10:54:31.670Z,62.29
2023-03-04T10:55:31.689Z,63.62
2023-03-04T10:56:31.643Z,63.18
2023-03-04T10:57:31.636Z,63.90
2023-03-04T10:58:31.613Z,63.69
2023-03-04T10:59:31.609Z,62.26
2023-03-04T11:00:31.577Z,62.36
2023-03-04T11:01:31.570Z,62.39
2023-03-04T11:02:31.559Z,62.31
2023-03-04T11:03:31.595Z,64.29
2023-03-04T11:04:31.536Z,65.12
2023-03-04T11:05:31.514Z,65.94
2023-03-04T11:06:31.503Z,65.63
2023-03-04T11:07:35.839Z,65.12
2023-03-04T11:08:32.537Z,65.09
2023-03-04T11:09:31.464Z,64.06
2023-03-04T11:10:31.442Z,62.83
2023-03-04T11:11:31.464Z,63.85
2023-03-04T11:12:31.417Z,63.51
2023-03-04T11:13:31.409Z,63.21
2023-03-04T11:14:31.390Z,63.90
2023-03-04T11:15:31.385Z,62.05
2023-03-04T11:16:31.494Z,63.51
2023-03-04T11:17:31.359Z,63.62
2023-03-04T11:18:31.343Z,61.29
2023-03-04T11:19:31.347Z,63.42
2023-03-04T11:20:31.318Z,64.85
2023-03-04T11:21:31.301Z,63.10
2023-03-04T11:22:31.291Z,63.82
2023-03-04T11:23:31.270Z,63.10
2023-03-04T11:24:31.267Z,61.98
2023-03-04T11:25:31.246Z,62.29
2023-03-04T11:26:31.227Z,63.59
2023-03-04T11:27:31.245Z,63.07
2023-03-04T11:28:31.209Z,62.15
2023-03-04T11:29:31.195Z,62.98
2023-03-04T11:30:31.187Z,62.56
2023-03-04T11:31:31.199Z,62.29
2023-03-04T11:32:31.236Z,62.59
2023-03-04T11:33:31.142Z,63.51
2023-03-04T11:34:31.126Z,62.70
2023-03-04T11:35:31.191Z,63.00
2023-03-04T11:36:31.112Z,62.29
2023-03-04T11:37:31.115Z,62.70
2023-03-04T11:38:31.090Z,62.83
2023-03-04T11:39:31.068Z,64.54
2023-03-04T11:40:31.071Z,63.72
2023-03-04T11:41:31.067Z,62.70
2023-03-04T11:42:31.045Z,62.29
2023-03-04T11:43:31.049Z,62.29
2023-03-04T11:44:31.017Z,60.75
2023-03-04T11:45:32.922Z,61.36
2023-03-04T11:46:31.048Z,59.54
2023-03-04T11:47:30.987Z,62.52
2023-03-04T11:48:30.982Z,60.98
2023-03-04T11:49:30.966Z,61.18
2023-03-04T11:50:30.956Z,60.05
2023-03-04T11:51:30.944Z,60.36
2023-03-04T11:52:30.923Z,60.57
2023-03-04T11:53:30.947Z,60.88
2023-03-04T11:54:30.903Z,60.26
2023-03-04T11:55:30.896Z,59.47
2023-03-04T11:56:30.875Z,58.85
2023-03-04T11:57:30.877Z,60.91
2023-03-04T11:58:30.845Z,59.57
2023-03-04T11:59:30.853Z,60.08
2023-03-04T12:00:30.821Z,58.95
2023-03-04T12:01:30.799Z,56.70
2023-03-04T12:02:30.781Z,57.31
2023-03-04T12:03:30.901Z,57.72
2023-03-04T12:04:30.906Z,58.13
2023-03-04T12:05:30.779Z,57.41
2023-03-04T12:06:30.741Z,55.98
2023-03-04T12:07:30.716Z,57.62
2023-03-04T12:08:30.714Z,58.95
2023-03-04T12:09:30.689Z,57.82
2023-03-04T12:10:30.713Z,56.28
2023-03-04T12:11:30.663Z,58.54
2023-03-04T12:12:30.656Z,56.79
2023-03-04T12:13:30.639Z,56.18
2023-03-04T12:14:30.635Z,58.75
2023-03-04T12:15:30.670Z,58.23
2023-03-04T12:16:30.607Z,58.31
2023-03-04T12:17:30.608Z,59.88
2023-03-04T12:18:30.571Z,61.39
2023-03-04T12:19:30.566Z,59.34
2023-03-04T12:20:30.547Z,60.08
2023-03-04T12:21:30.555Z,60.08
2023-03-04T12:22:30.520Z,60.47
2023-03-04T12:23:30.529Z,58.95
2023-03-04T12:24:30.505Z,58.54
2023-03-04T12:25:30.496Z,55.05
2023-03-04T12:26:30.480Z,59.36
2023-03-04T12:27:30.465Z,59.47
2023-03-04T12:28:30.446Z,58.54
2023-03-04T12:29:30.431Z,58.44
2023-03-04T12:30:30.415Z,58.13
2023-03-04T12:31:30.550Z,58.00
2023-03-04T12:32:30.413Z,59.03
2023-03-04T12:33:30.422Z,55.36
2023-03-04T12:34:30.359Z,56.49
2023-03-04T12:35:30.381Z,58.64
2023-03-04T12:36:30.344Z,59.16
2023-03-04T12:37:30.333Z,58.83
2023-03-04T12:38:30.315Z,56.77
2023-03-04T12:39:30.300Z,54.82
2023-03-04T12:40:30.298Z,50.10
2023-03-04T12:41:30.284Z,51.64
2023-03-04T12:42:30.262Z,53.56
2023-03-04T12:43:30.242Z,52.12
2023-03-04T12:44:30.237Z,47.51
2023-03-04T12:45:30.219Z,49.64
2023-03-04T12:46:30.246Z,51.48
2023-03-04T12:47:30.221Z,51.10
2023-03-04T12:48:30.184Z,51.10
2023-03-04T12:49:30.171Z,52.44
2023-03-04T12:50:30.183Z,53.36
2023-03-04T12:51:30.144Z,52.56
2023-03-04T12:52:30.124Z,52.97